createdAt,value
2019-06-10T00:00:31.132Z,6.50
2019-06-10T00:03:02.421Z,3.20
2019-06-10T00:05:41.289Z,4.83
2019-06-10T00:08:07.102Z,7.40
2019-06-10T00:10:41.994Z,7.17
2019-06-10T00:13:11.441Z,9.83
2019-06-10T00:15:40.943Z,9.63
2019-06-10T00:18:33.496Z,8.40
2019-06-10T00:20:41.396Z,9.20
2019-06-10T00:23:14.200Z,5.27
2019-06-10T00:25:47.361Z,6.87
2019-06-10T00:28:16.521Z,8.37
2019-06-10T00:30:46.776Z,6.07
2019-06-10T00:33:15.911Z,10.23
2019-06-10T00:35:46.325Z,5.90
2019-06-10T00:38:15.532Z,8.90
2019-06-10T00:40:45.158Z,5.87
2019-06-10T00:43:14.408Z,5.70
2019-06-10T00:45:45.110Z,7.10
2019-06-10T00:48:25.266Z,13.50
2019-06-10T00:50:46.321Z,7.43
2019-06-10T00:53:15.968Z,6.13
2019-06-10T00:55:57.877Z,10.07
2019-06-10T00:58:28.269Z,8.77
2019-06-10T01:01:00.677Z,7.23
2019-06-10T01:03:31.799Z,10.77
2019-06-10T01:06:01.575Z,8.63
2019-06-10T01:08:33.834Z,8.27
2019-06-10T01:11:09.245Z,6.60
2019-06-10T01:13:33.954Z,11.00
2019-06-10T01:16:03.488Z,11.60
2019-06-10T01:18:38.266Z,7.53
2019-06-10T01:21:04.209Z,9.17
2019-06-10T01:23:33.382Z,6.27
2019-06-10T01:26:02.493Z,8.17
2019-06-10T01:28:33.526Z,5.93
2019-06-10T01:31:09.321Z,7.20
2019-06-10T01:33:36.044Z,11.87
2019-06-10T01:36:06.268Z,7.33
2019-06-10T01:38:37.154Z,12.07
2019-06-10T01:41:08.056Z,9.47
2019-06-10T01:43:37.791Z,7.10
2019-06-10T01:46:07.016Z,9.73
2019-06-10T01:48:44.225Z,11.83
2019-06-10T01:51:07.353Z,8.50
2019-06-10T01:53:36.526Z,6.73
2019-06-10T01:56:05.707Z,7.20
2019-06-10T01:58:37.990Z,12.57
2019-06-10T02:01:23.109Z,9.17
2019-06-10T02:03:52.715Z,7.57
2019-06-10T02:06:25.785Z,8.60
2019-06-10T02:09:04.917Z,5.80
2019-06-10T02:11:34.980Z,9.43
2019-06-10T02:14:04.417Z,9.87
2019-06-10T02:16:33.667Z,6.63
2019-06-10T02:19:05.462Z,5.50
2019-06-10T02:21:35.680Z,6.80
2019-06-10T02:24:07.045Z,11.70
2019-06-10T02:26:36.169Z,10.77
2019-06-10T02:29:05.582Z,10.50
2019-06-10T02:31:37.295Z,8.37
2019-06-10T02:34:05.632Z,8.60
2019-06-10T02:36:44.568Z,8.40
2019-06-10T02:39:21.542Z,7.27
2019-06-10T02:41:46.046Z,6.70
2019-06-10T02:44:20.902Z,7.87
2019-06-10T02:46:47.678Z,7.63
2019-06-10T02:49:30.175Z,6.83
2019-06-10T02:51:53.586Z,8.77
2019-06-10T02:54:28.752Z,10.17
2019-06-10T02:56:53.946Z,12.33
2019-06-10T02:59:27.544Z,10.10
2019-06-10T03:01:54.564Z,5.60
2019-06-10T03:04:29.901Z,7.57
2019-06-10T03:06:55.151Z,8.93
2019-06-10T03:09:27.485Z,10.60
2019-06-10T03:11:59.483Z,8.50
2019-06-10T03:14:28.717Z,7.63
2019-06-10T03:17:03.057Z,12.90
2019-06-10T03:19:44.137Z,9.23
2019-06-10T03:22:03.031Z,7.57
2019-06-10T03:24:32.910Z,10.47
2019-06-10T03:27:02.697Z,12.13
2019-06-10T03:29:32.735Z,11.27
2019-06-10T03:32:04.960Z,8.47
2019-06-10T03:34:40.566Z,10.30
2019-06-10T03:37:04.203Z,7.73
2019-06-10T03:39:34.711Z,7.10
2019-06-10T03:42:07.195Z,12.53
2019-06-10T03:44:37.883Z,7.90
2019-06-10T03:47:09.498Z,7.30
2019-06-10T03:49:52.355Z,8.77
2019-06-10T03:52:13.002Z,9.87
2019-06-10T03:54:43.297Z,7.47
2019-06-10T03:57:12.724Z,6.23
2019-06-10T03:59:44.594Z,11.30
2019-06-10T04:02:13.875Z,7.10
2019-06-10T04:04:45.734Z,8.03
2019-06-10T04:07:14.895Z,6.87
2019-06-10T04:09:44.047Z,10.70
2019-06-10T04:12:15.518Z,10.67
2019-06-10T04:14:45.167Z,5.70
2019-06-10T04:17:15.392Z,6.60
2019-06-10T04:19:45.115Z,4.70
2019-06-10T04:22:17.569Z,8.77
2019-06-10T04:24:47.111Z,6.80
2019-06-10T04:27:16.166Z,6.67
2019-06-10T04:29:45.343Z,8.33
2019-06-10T04:32:14.480Z,9.03
2019-06-10T04:34:43.591Z,7.67
2019-06-10T04:37:12.805Z,6.37
2019-06-10T04:39:42.765Z,10.20
2019-06-10T04:42:13.015Z,6.37
2019-06-10T04:44:42.408Z,8.53
2019-06-10T04:47:12.459Z,6.27
2019-06-10T04:49:42.837Z,7.70
2019-06-10T04:52:12.285Z,5.90
2019-06-10T04:54:42.106Z,8.87
2019-06-10T04:57:12.836Z,8.40
2019-06-10T04:59:42.902Z,7.40
2019-06-10T05:02:12.891Z,7.93
2019-06-10T05:04:42.642Z,5.97
2019-06-10T05:07:13.990Z,5.27
2019-06-10T05:09:43.159Z,6.70
2019-06-10T05:12:15.497Z,5.37
2019-06-10T05:14:46.269Z,6.90
2019-06-10T05:17:16.102Z,7.07
2019-06-10T05:19:45.242Z,12.93
2019-06-10T05:22:16.564Z,4.77
2019-06-10T05:24:52.727Z,4.77
2019-06-10T05:27:25.097Z,5.20
2019-06-10T05:29:54.576Z,4.70
2019-06-10T05:32:27.513Z,7.07
2019-06-10T05:34:57.100Z,3.87
2019-06-10T05:37:26.750Z,5.37
2019-06-10T05:39:57.435Z,5.83
2019-06-10T05:42:35.606Z,7.03
2019-06-10T05:45:09.568Z,6.23
2019-06-10T05:47:43.327Z,4.53
2019-06-10T05:50:34.950Z,5.13
2019-06-10T05:53:05.197Z,4.70
2019-06-10T05:55:35.255Z,5.23
2019-06-10T05:58:07.219Z,7.20
2019-06-10T06:00:37.007Z,4.33
2019-06-10T06:03:06.247Z,4.07
2019-06-10T06:05:37.642Z,4.13
2019-06-10T06:08:08.729Z,6.13
2019-06-10T06:10:37.868Z,3.87
2019-06-10T06:13:08.781Z,6.10
2019-06-10T06:15:42.265Z,2.90
2019-06-10T06:18:14.004Z,4.57
2019-06-10T06:20:43.670Z,6.77
2019-06-10T06:23:13.496Z,3.43
2019-06-10T06:25:47.011Z,5.13
2019-06-10T06:28:19.574Z,5.63
2019-06-10T06:30:49.423Z,5.07
2019-06-10T06:33:22.225Z,4.77
2019-06-10T06:36:03.292Z,5.93
2019-06-10T06:38:34.019Z,3.63
2019-06-10T06:41:05.428Z,3.07
2019-06-10T06:43:39.997Z,3.13
2019-06-10T06:46:07.356Z,3.77
2019-06-10T06:48:38.830Z,4.70
2019-06-10T06:51:08.720Z,5.73
2019-06-10T06:53:45.406Z,4.97
2019-06-10T06:56:12.881Z,4.43
2019-06-10T06:58:43.304Z,4.23
2019-06-10T07:01:14.788Z,2.77
2019-06-10T07:03:45.327Z,5.60
2019-06-10T07:06:17.805Z,3.33
2019-06-10T07:09:00.307Z,3.33
2019-06-10T07:11:18.508Z,3.53
2019-06-10T07:13:49.026Z,1.80
2019-06-10T07:16:18.424Z,4.10
2019-06-10T07:18:50.348Z,4.30
2019-06-10T07:21:22.814Z,6.73
2019-06-10T07:23:53.729Z,2.27
2019-06-10T07:26:23.439Z,3.43
2019-06-10T07:28:53.794Z,3.10
2019-06-10T07:31:27.638Z,6.33
2019-06-10T07:33:54.163Z,3.80
2019-06-10T07:36:27.230Z,3.67
2019-06-10T07:38:59.009Z,3.03
2019-06-10T07:41:28.620Z,5.77
2019-06-10T07:43:57.771Z,4.07
2019-06-10T07:46:26.972Z,4.90
2019-06-10T07:48:56.746Z,2.30
2019-06-10T07:51:26.112Z,2.17
2019-06-10T07:53:56.506Z,3.97
2019-06-10T07:56:29.752Z,3.03
2019-06-10T07:58:56.669Z,4.93
2019-06-10T08:01:26.160Z,4.73
2019-06-10T08:03:57.501Z,2.93
2019-06-10T08:06:27.387Z,2.93
2019-06-10T08:09:01.794Z,3.57
2019-06-10T08:11:33.449Z,5.37
2019-06-10T08:14:04.608Z,2.77
2019-06-10T08:16:45.077Z,2.83
2019-06-10T08:19:34.504Z,4.93
2019-06-10T08:21:49.439Z,3.63
2019-06-10T08:24:19.024Z,2.83
2019-06-10T08:26:49.033Z,6.00
2019-06-10T08:29:18.253Z,5.27
2019-06-10T08:31:49.921Z,6.27
2019-06-10T08:34:19.125Z,2.50
2019-06-10T08:36:50.714Z,4.87
2019-06-10T08:39:23.097Z,5.23
2019-06-10T08:41:52.912Z,5.47
2019-06-10T08:44:23.863Z,4.57
2019-06-10T08:46:54.191Z,3.73
2019-06-10T08:49:24.053Z,2.50
2019-06-10T08:51:53.639Z,4.57
2019-06-10T08:54:23.447Z,3.17
2019-06-10T08:56:54.029Z,2.47
2019-06-10T08:59:23.911Z,4.37
2019-06-10T09:01:56.927Z,4.17
2019-06-10T09:04:29.512Z,3.40
2019-06-10T09:06:59.959Z,2.57
2019-06-10T09:09:33.048Z,3.20
2019-06-10T09:12:05.055Z,3.37
2019-06-10T09:14:34.986Z,3.73
2019-06-10T09:17:04.107Z,3.10
2019-06-10T09:19:33.396Z,3.97
2019-06-10T09:22:03.434Z,2.73
2019-06-10T09:24:33.310Z,3.37
2019-06-10T09:27:03.023Z,4.90
2019-06-10T09:29:33.353Z,5.03
2019-06-10T09:32:03.598Z,1.90
2019-06-10T09:34:36.767Z,4.27
2019-06-10T09:37:07.104Z,4.73
2019-06-10T09:39:36.906Z,2.47
2019-06-10T09:42:14.377Z,5.33
2019-06-10T09:44:47.578Z,2.43
2019-06-10T09:47:19.822Z,3.80
2019-06-10T09:49:55.543Z,4.00
2019-06-10T09:52:24.842Z,6.17
2019-06-10T09:54:56.830Z,4.40
2019-06-10T09:57:26.444Z,6.07
2019-06-10T09:59:56.576Z,3.60
2019-06-10T10:02:27.334Z,2.43
2019-06-10T10:04:58.545Z,4.70
2019-06-10T10:07:28.633Z,8.63
2019-06-10T10:09:58.847Z,3.47
2019-06-10T10:12:29.332Z,6.70
2019-06-10T10:15:16.306Z,3.07
2019-06-10T10:17:33.225Z,5.47
2019-06-10T10:20:03.170Z,4.43
2019-06-10T10:22:34.071Z,4.37
2019-06-10T10:25:03.795Z,4.13
2019-06-10T10:30:57.894Z,6.00
2019-06-10T10:33:33.350Z,3.37
2019-06-10T10:36:06.136Z,2.97
2019-06-10T10:38:36.150Z,3.23
2019-06-10T10:41:05.943Z,3.63
2019-06-10T10:43:43.707Z,6.03
2019-06-10T10:46:14.328Z,2.87
2019-06-10T10:48:45.011Z,3.47
2019-06-10T10:51:14.651Z,2.63
2019-06-10T10:53:48.320Z,6.00
2019-06-10T10:56:14.900Z,6.07
2019-06-10T10:58:46.973Z,5.13
2019-06-10T11:01:16.440Z,4.97
2019-06-10T11:03:47.857Z,3.00
2019-06-10T11:06:17.232Z,4.77
2019-06-10T11:08:48.015Z,3.73
2019-06-10T11:11:17.726Z,7.53
2019-06-10T11:13:47.375Z,3.77
2019-06-10T11:16:16.718Z,2.73
2019-06-10T11:18:47.120Z,4.53
2019-06-10T11:21:16.495Z,3.70
2019-06-10T11:23:48.104Z,4.37
2019-06-10T11:26:16.872Z,4.17
2019-06-10T11:28:48.030Z,7.17
2019-06-10T11:31:18.703Z,4.47
2019-06-10T11:33:49.203Z,3.70
2019-06-10T11:36:18.738Z,3.27
2019-06-10T11:38:48.605Z,3.30
2019-06-10T11:41:23.638Z,3.73
2019-06-10T11:43:56.033Z,3.63
2019-06-10T11:46:24.943Z,4.93
2019-06-10T11:48:57.300Z,5.60
2019-06-10T11:51:27.020Z,3.77
2019-06-10T11:53:58.943Z,5.27
2019-06-10T11:56:33.625Z,5.93
2019-06-10T11:59:08.921Z,4.97
2019-06-10T12:01:33.735Z,3.00
2019-06-10T12:04:04.324Z,2.67
2019-06-10T12:06:34.130Z,6.63
2019-06-10T12:09:08.864Z,5.27
2019-06-10T12:11:38.380Z,4.07
2019-06-10T12:14:08.936Z,4.07
2019-06-10T12:19:17.869Z,3.57
2019-06-10T12:21:47.057Z,4.93
2019-06-10T12:24:17.186Z,5.43
2019-06-10T12:26:49.842Z,4.80
2019-06-10T12:29:22.530Z,5.53
2019-06-10T12:31:56.143Z,4.60
2019-06-10T12:34:23.506Z,8.07
2019-06-10T12:37:04.206Z,4.10
2019-06-10T12:39:36.900Z,8.10
2019-06-10T12:42:06.780Z,4.43
2019-06-10T12:44:36.195Z,4.30
2019-06-10T12:47:08.227Z,3.73
2019-06-10T12:49:36.979Z,10.83
2019-06-10T12:52:07.650Z,7.17
2019-06-10T12:54:38.191Z,9.10
2019-06-10T12:57:07.360Z,8.83
2019-06-10T12:59:37.221Z,8.60
2019-06-10T13:02:18.984Z,8.10
2019-06-10T13:04:42.955Z,7.00
2019-06-10T13:07:14.255Z,7.87
2019-06-10T13:09:45.434Z,5.77
2019-06-10T13:12:14.965Z,9.83
2019-06-10T13:14:44.153Z,5.73
2019-06-10T13:17:13.381Z,4.30
2019-06-10T13:19:43.211Z,6.73
2019-06-10T13:22:15.621Z,8.37
2019-06-10T13:24:44.822Z,6.03
2019-06-10T13:27:14.016Z,7.90
2019-06-10T13:29:44.366Z,6.47
2019-06-10T13:32:16.457Z,4.87
2019-06-10T13:34:45.670Z,5.43
2019-06-10T13:37:16.287Z,5.93
2019-06-10T13:39:45.946Z,4.60
2019-06-10T13:42:15.224Z,5.90
2019-06-10T13:44:47.964Z,8.10
2019-06-10T13:47:18.504Z,6.80
2019-06-10T13:49:50.078Z,5.07
2019-06-10T13:52:23.147Z,6.67
2019-06-10T13:54:53.278Z,9.07
2019-06-10T13:57:23.540Z,6.17
2019-06-10T13:59:53.953Z,8.70
2019-06-10T14:02:25.016Z,3.87
2019-06-10T14:04:56.413Z,5.27
2019-06-10T14:07:32.404Z,6.70
2019-06-10T14:10:07.282Z,6.13
2019-06-10T14:12:37.432Z,6.07
2019-06-10T14:15:09.824Z,5.27
2019-06-10T14:17:45.719Z,10.67
2019-06-10T14:20:17.897Z,13.73
2019-06-10T14:22:47.507Z,8.73
2019-06-10T14:25:18.425Z,8.60
2019-06-10T14:27:49.880Z,10.10
2019-06-10T14:30:19.339Z,13.07
2019-06-10T14:32:57.364Z,9.43
2019-06-10T14:35:27.558Z,6.20
2019-06-10T14:37:57.916Z,7.80
2019-06-10T14:40:27.080Z,8.23
2019-06-10T14:42:58.796Z,9.63
2019-06-10T14:45:29.781Z,6.43
2019-06-10T14:48:02.861Z,8.90
2019-06-10T14:50:32.536Z,11.57
2019-06-10T14:53:04.758Z,7.80
2019-06-10T14:55:34.155Z,7.00
2019-06-10T14:58:05.380Z,7.73
2019-06-10T15:00:37.385Z,11.13
2019-06-10T15:03:09.104Z,8.70
2019-06-10T15:05:37.779Z,10.47
2019-06-10T15:08:09.350Z,10.57
2019-06-10T15:10:42.881Z,11.07
2019-06-10T15:13:11.815Z,6.50
2019-06-10T15:15:42.657Z,6.00
2019-06-10T15:18:17.498Z,7.37
2019-06-10T15:20:44.572Z,8.27
2019-06-10T15:23:18.714Z,5.30
2019-06-10T15:25:52.437Z,9.73
2019-06-10T15:28:20.408Z,4.43
2019-06-10T15:30:52.252Z,9.83
2019-06-10T15:33:23.878Z,9.27
2019-06-10T15:35:55.725Z,9.40
2019-06-10T15:38:24.832Z,6.80
2019-06-10T15:40:54.766Z,6.07
2019-06-10T15:43:23.914Z,7.63
2019-06-10T15:45:53.209Z,5.27
2019-06-10T15:48:25.408Z,7.20
2019-06-10T15:50:55.098Z,8.53
2019-06-10T15:53:26.004Z,7.67
2019-06-10T15:56:13.103Z,10.33
2019-06-10T15:58:27.310Z,5.83
2019-06-10T16:00:56.667Z,8.30
2019-06-10T16:03:26.182Z,5.37
2019-06-10T16:05:58.405Z,8.57
2019-06-10T16:08:27.621Z,4.87
2019-06-10T16:10:56.877Z,4.80
2019-06-10T16:13:27.806Z,6.73
2019-06-10T16:15:57.315Z,6.83
2019-06-10T16:18:28.568Z,4.97
2019-06-10T16:20:58.139Z,5.20
2019-06-10T16:23:28.703Z,7.23
2019-06-10T16:26:02.701Z,9.80
2019-06-10T16:28:33.959Z,4.97
2019-06-10T16:31:03.900Z,7.50
2019-06-10T16:33:34.052Z,6.03
2019-06-10T16:36:03.423Z,5.57
2019-06-10T16:38:34.614Z,4.37
2019-06-10T16:41:04.792Z,4.53
2019-06-10T16:43:37.861Z,6.13
2019-06-10T16:46:07.527Z,7.73
2019-06-10T16:48:36.924Z,8.67
2019-06-10T16:51:06.105Z,8.97
2019-06-10T16:53:35.804Z,9.00
2019-06-10T16:56:06.872Z,9.20
2019-06-10T16:58:36.314Z,7.33
2019-06-10T17:01:06.297Z,8.93
2019-06-10T17:03:38.808Z,8.87
2019-06-10T17:06:10.095Z,8.33
2019-06-10T17:08:39.313Z,5.83
2019-06-10T17:11:13.845Z,7.37
2019-06-10T17:13:44.284Z,7.93
2019-06-10T17:16:13.476Z,7.57
2019-06-10T17:18:42.615Z,10.60
2019-06-10T17:21:13.205Z,9.20
2019-06-10T17:23:43.435Z,10.67
2019-06-10T17:26:14.552Z,6.67
2019-06-10T17:28:43.889Z,6.57
2019-06-10T17:31:14.501Z,6.30
2019-06-10T17:33:43.675Z,7.67
2019-06-10T17:36:12.935Z,8.97
2019-06-10T17:38:43.001Z,8.93
2019-06-10T17:41:13.340Z,9.33
2019-06-10T17:43:42.989Z,5.33
2019-06-10T17:46:14.712Z,6.70
2019-06-10T17:48:43.945Z,9.20
2019-06-10T17:51:13.160Z,8.57
2019-06-10T17:53:42.715Z,6.63
2019-06-10T17:56:13.604Z,7.30
2019-06-10T17:58:58.108Z,9.10
2019-06-10T18:01:27.187Z,11.07
2019-06-10T18:03:57.168Z,8.20
2019-06-10T18:06:27.806Z,6.20
2019-06-10T18:09:03.821Z,7.30
2019-06-10T18:11:35.805Z,8.60
2019-06-10T18:14:06.930Z,5.90
2019-06-10T18:16:36.813Z,7.17
2019-06-10T18:19:07.318Z,8.03
2019-06-10T18:21:36.583Z,12.33
2019-06-10T18:24:08.271Z,7.60
2019-06-10T18:26:38.048Z,10.47
2019-06-10T18:29:12.823Z,10.10
2019-06-10T18:31:45.762Z,7.73
2019-06-10T18:34:14.953Z,9.33
2019-06-10T18:36:44.137Z,9.53
2019-06-10T18:39:15.775Z,12.97
2019-06-10T18:41:46.002Z,9.27
2019-06-10T18:44:22.638Z,10.57
2019-06-10T18:46:46.591Z,11.30
2019-06-10T18:49:16.800Z,12.73
2019-06-10T18:51:45.971Z,9.73
2019-06-10T18:54:15.132Z,8.20
2019-06-10T18:56:52.386Z,12.87
2019-06-10T18:59:25.933Z,10.10
2019-06-10T19:01:56.016Z,8.87
2019-06-10T19:04:36.469Z,12.00
2019-06-10T19:07:24.253Z,14.10
2019-06-10T19:10:03.282Z,10.63
2019-06-10T19:15:44.268Z,9.73
2019-06-10T19:18:15.540Z,8.23
2019-06-10T19:20:45.537Z,10.00
2019-06-10T19:23:18.492Z,7.97
2019-06-10T19:25:48.209Z,11.20
2019-06-10T19:28:19.791Z,10.07
2019-06-10T19:30:49.300Z,7.97
2019-06-10T19:33:18.531Z,9.80
2019-06-10T19:35:47.702Z,8.73
2019-06-10T19:38:16.956Z,10.63
2019-06-10T19:40:46.119Z,8.93
2019-06-10T19:43:15.310Z,9.47
2019-06-10T19:45:44.704Z,11.00
2019-06-10T19:48:14.075Z,13.50
2019-06-10T19:50:49.941Z,14.57
2019-06-10T19:53:14.105Z,11.60
2019-06-10T19:55:46.101Z,12.60
2019-06-10T19:58:17.795Z,13.03
2019-06-10T20:00:51.153Z,14.03
2019-06-10T20:03:18.632Z,13.50
2019-06-10T20:05:47.919Z,14.10
2019-06-10T20:08:17.717Z,13.67
2019-06-10T20:10:52.825Z,13.03
2019-06-10T20:13:22.999Z,13.73
2019-06-10T20:15:52.696Z,13.87
2019-06-10T20:18:25.244Z,16.63
2019-06-10T20:20:54.465Z,15.17
2019-06-10T20:23:24.161Z,17.37
2019-06-10T20:25:56.632Z,15.13
2019-06-10T20:28:27.547Z,18.63
2019-06-10T20:31:04.557Z,15.70
2019-06-10T20:33:38.186Z,16.70
2019-06-10T20:36:17.681Z,17.77
2019-06-10T20:38:55.790Z,14.80
2019-06-10T20:41:25.458Z,18.00
2019-06-10T20:43:55.494Z,18.77
2019-06-10T20:46:24.919Z,14.80
2019-06-10T20:48:56.934Z,16.93
2019-06-10T20:51:27.474Z,15.93
2019-06-10T20:53:57.622Z,16.77
2019-06-10T20:56:26.828Z,16.47
2019-06-10T20:58:56.371Z,13.97
2019-06-10T21:01:25.773Z,14.93
2019-06-10T21:03:55.157Z,17.00
2019-06-10T21:06:24.919Z,18.97
2019-06-10T21:08:55.375Z,17.47
2019-06-10T21:11:25.261Z,20.03
2019-06-10T21:13:55.695Z,19.27
2019-06-10T21:16:25.220Z,25.53
2019-06-10T21:18:55.563Z,21.30
2019-06-10T21:21:26.307Z,18.77
2019-06-10T21:23:55.451Z,20.73
2019-06-10T21:26:24.667Z,18.30
2019-06-10T21:28:55.025Z,22.73
2019-06-10T21:31:24.602Z,21.87
2019-06-10T21:33:55.728Z,20.47
2019-06-10T21:36:24.857Z,25.40
2019-06-10T21:38:55.720Z,20.83
2019-06-10T21:41:27.135Z,20.03
2019-06-10T21:43:59.590Z,20.13
2019-06-10T21:46:29.766Z,20.67
2019-06-10T21:48:58.942Z,22.43
2019-06-10T21:51:31.532Z,19.30
2019-06-10T21:53:59.589Z,22.37
2019-06-10T21:56:29.650Z,18.03
2019-06-10T21:58:58.835Z,21.93
2019-06-10T22:01:28.078Z,20.43
2019-06-10T22:04:00.659Z,25.37
2019-06-10T22:06:28.187Z,21.33
2019-06-10T22:08:57.385Z,22.27
2019-06-10T22:11:26.553Z,20.63
2019-06-10T22:13:56.333Z,21.87
2019-06-10T22:16:25.746Z,21.60
2019-06-10T22:18:55.062Z,21.97
2019-06-10T22:21:24.323Z,25.90
2019-06-10T22:23:55.315Z,22.43
2019-06-10T22:26:24.361Z,22.43
2019-06-10T22:28:55.852Z,22.33
2019-06-10T22:31:26.407Z,32.23
2019-06-10T22:33:57.491Z,23.57
2019-06-10T22:36:27.012Z,27.97
2019-06-10T22:38:58.994Z,29.53
2019-06-10T22:41:27.087Z,30.23
2019-06-10T22:43:57.552Z,30.97
2019-06-10T22:46:26.946Z,26.43
2019-06-10T22:48:56.560Z,32.97
2019-06-10T22:51:25.853Z,33.07
2019-06-10T22:53:58.187Z,37.07
2019-06-10T22:56:27.441Z,29.67
2019-06-10T22:58:57.480Z,30.63
2019-06-10T23:01:37.463Z,31.63
2019-06-10T23:04:01.059Z,38.17
2019-06-10T23:06:34.115Z,34.73
2019-06-10T23:09:06.077Z,38.90
2019-06-10T23:11:39.562Z,42.80
2019-06-10T23:14:12.252Z,39.60
2019-06-10T23:16:39.815Z,41.53
2019-06-10T23:19:12.988Z,38.37
2019-06-10T23:21:43.735Z,38.30
2019-06-10T23:24:13.535Z,40.07
2019-06-10T23:26:43.781Z,42.40
2019-06-10T23:29:16.300Z,45.47
2019-06-10T23:32:00.788Z,40.33
2019-06-10T23:34:25.203Z,37.07
2019-06-10T23:36:56.661Z,32.87
2019-06-10T23:39:25.609Z,32.17
2019-06-10T23:41:56.173Z,25.03
2019-06-10T23:44:25.748Z,18.60
2019-06-10T23:46:55.241Z,13.40
2019-06-10T23:49:24.641Z,7.97
2019-06-10T23:51:54.501Z,11.70
2019-06-10T23:54:24.731Z,11.87
2019-06-10T23:56:54.402Z,7.73
2019-06-10T23:59:24.493Z,7.67
